Time;durP1;ratioP1;P1;durP2;ratioP2;P2;SDS_P1;SDS_P2;PMS_P1;PMS_P2;Temp;Humidity;BMP_temperature;BMP_pressure;BME280_temperature;BME280_humidity;BME280_pressure;Samples;Min_cycle;Max_cycle;Signal;HPM_P1;HPM_P2
2021/10/24 00:02:09;;;;;;;19.75;8.75;;;;;;;6.85;100.00;102252.97;5028103;28;20052;-80
2021/10/24 00:04:36;;;;;;;16.83;8.65;;;;;;;6.62;100.00;102257.72;5038871;28;20045;-82
2021/10/24 00:07:04;;;;;;;20.02;8.55;;;;;;;6.50;100.00;102256.16;5023066;28;20044;-83
2021/10/24 00:09:31;;;;;;;22.08;8.98;;;;;;;6.43;100.00;102251.03;5040655;28;20055;-84
2021/10/24 00:12:00;;;;;;;17.02;9.13;;;;;;;6.63;100.00;102250.75;5036952;28;20045;-84
2021/10/24 00:14:27;;;;;;;16.15;8.07;;;;;;;6.78;100.00;102260.94;5013364;28;20053;-81
2021/10/24 00:16:55;;;;;;;16.58;8.48;;;;;;;6.93;100.00;102260.66;5019102;28;20049;-87
2021/10/24 00:19:22;;;;;;;17.00;8.05;;;;;;;6.77;100.00;102261.84;5014666;28;20091;-82
2021/10/24 00:21:49;;;;;;;18.40;7.68;;;;;;;6.72;100.00;102254.06;5017638;28;20538;-83
2021/10/24 00:24:18;;;;;;;20.67;9.52;;;;;;;6.66;100.00;102258.50;5032652;28;20151;-80
2021/10/24 00:26:45;;;;;;;20.60;8.77;;;;;;;6.83;100.00;102265.19;5037989;28;20288;-87
2021/10/24 00:29:12;;;;;;;18.08;7.97;;;;;;;6.95;100.00;102263.28;5053836;28;20076;-86
2021/10/24 00:31:40;;;;;;;18.08;8.85;;;;;;;6.79;100.00;102265.28;5040686;28;20057;-82
2021/10/24 00:34:07;;;;;;;19.92;9.20;;;;;;;6.65;100.00;102264.66;5033744;28;20056;-84
2021/10/24 00:36:35;;;;;;;23.70;9.13;;;;;;;6.68;100.00;102254.13;5032073;28;20596;-85
2021/10/24 00:39:03;;;;;;;26.42;10.55;;;;;;;6.80;100.00;102264.41;5034016;28;20055;-86
2021/10/24 00:41:31;;;;;;;23.85;11.55;;;;;;;6.66;100.00;102267.22;5044454;28;20084;-82
2021/10/24 00:43:59;;;;;;;29.85;12.13;;;;;;;6.57;100.00;102259.53;5040550;28;20049;-86
2021/10/24 00:46:27;;;;;;;22.77;10.43;;;;;;;6.53;100.00;102268.34;5049906;28;20049;-83
2021/10/24 00:48:56;;;;;;;32.95;11.15;;;;;;;6.46;100.00;102264.94;5039026;28;20185;-85
2021/10/24 00:51:23;;;;;;;28.40;12.02;;;;;;;6.59;100.00;102258.63;5020584;28;20072;-81
2021/10/24 00:53:51;;;;;;;27.15;11.13;;;;;;;6.69;100.00;102258.47;5032530;28;20047;-81
2021/10/24 00:56:20;;;;;;;31.73;12.75;;;;;;;6.64;100.00;102260.31;5020328;28;20044;-83
2021/10/24 00:58:50;;;;;;;27.88;11.27;;;;;;;6.58;100.00;102266.50;5013687;28;20037;-85
2021/10/24 01:01:18;;;;;;;21.70;10.25;;;;;;;6.51;100.00;102257.88;5030980;28;20049;-82
2021/10/24 01:03:46;;;;;;;24.63;11.35;;;;;;;6.75;100.00;102255.75;5028061;28;20037;-83
2021/10/24 01:06:13;;;;;;;25.30;10.25;;;;;;;6.76;100.00;102250.50;5000728;28;20141;-85
2021/10/24 01:08:40;;;;;;;26.73;10.82;;;;;;;6.54;100.00;102251.75;5021573;28;20070;-83
2021/10/24 01:11:07;;;;;;;25.52;11.75;;;;;;;6.33;100.00;102253.81;5034879;28;20060;-79
2021/10/24 01:13:34;;;;;;;24.77;10.50;;;;;;;6.38;100.00;102250.25;5027308;28;20044;-89
2021/10/24 01:16:13;;;;;;;24.08;10.45;;;;;;;6.39;100.00;102249.34;5054561;28;20104;-88
2021/10/24 01:18:41;;;;;;;24.27;9.80;;;;;;;6.47;100.00;102250.97;5053913;28;20033;-89
2021/10/24 01:21:08;;;;;;;22.35;10.40;;;;;;;6.32;100.00;102248.59;5036108;28;20217;-83
2021/10/24 01:23:36;;;;;;;24.67;10.30;;;;;;;6.32;100.00;102249.47;5030138;28;20049;-80
2021/10/24 01:26:05;;;;;;;24.33;10.50;;;;;;;6.08;100.00;102248.09;5027305;28;20063;-84
2021/10/24 01:28:33;;;;;;;26.08;12.30;;;;;;;5.90;100.00;102243.09;5045491;28;21237;-83
2021/10/24 01:31:01;;;;;;;19.35;9.85;;;;;;;6.13;100.00;102244.53;5034138;28;20041;-85
2021/10/24 01:33:28;;;;;;;20.05;9.73;;;;;;;5.99;100.00;102244.72;5011920;28;20052;-82
2021/10/24 01:35:59;;;;;;;21.00;9.95;;;;;;;6.20;100.00;102239.19;5028665;28;20060;-82
2021/10/24 01:38:27;;;;;;;20.98;10.13;;;;;;;6.04;100.00;102240.31;5028487;28;20045;-82
2021/10/24 01:40:55;;;;;;;32.60;11.18;;;;;;;5.89;100.00;102238.72;5011514;28;20037;-78
2021/10/24 01:43:24;;;;;;;21.63;10.55;;;;;;;5.89;100.00;102245.69;5027792;28;20558;-83
2021/10/24 01:45:52;;;;;;;27.75;10.82;;;;;;;6.08;100.00;102236.75;4994873;28;20380;-80
2021/10/24 01:48:20;;;;;;;27.38;11.63;;;;;;;5.96;100.00;102244.78;5028436;28;20049;-84
2021/10/24 01:50:48;;;;;;;25.63;10.70;;;;;;;5.96;100.00;102240.41;4996561;28;20068;-87
2021/10/24 01:53:43;;;;;;;19.98;9.85;;;;;;;5.78;100.00;102245.84;5030002;28;20061;-87
2021/10/24 01:56:10;;;;;;;26.73;9.55;;;;;;;5.63;100.00;102238.19;5028475;28;20053;-83
2021/10/24 01:58:37;;;;;;;28.38;11.23;;;;;;;5.48;100.00;102234.88;4996954;28;20053;-82
2021/10/24 02:01:05;;;;;;;31.40;11.25;;;;;;;5.33;100.00;102241.16;5012607;28;20041;-82
2021/10/24 02:03:33;;;;;;;25.52;10.60;;;;;;;5.26;100.00;102238.63;4996737;28;20102;-89
2021/10/24 02:06:00;;;;;;;24.38;11.02;;;;;;;5.65;100.00;102239.91;5012655;28;20045;-83
2021/10/24 02:08:27;;;;;;;29.13;10.98;;;;;;;5.61;100.00;102233.00;5022423;28;20555;-82
2021/10/24 02:10:54;;;;;;;28.70;11.45;;;;;;;5.34;100.00;102234.19;5033715;28;20049;-82
2021/10/24 02:13:22;;;;;;;23.55;11.05;;;;;;;5.18;100.00;102230.91;5012715;28;20083;-81
2021/10/24 02:15:49;;;;;;;22.92;9.43;;;;;;;5.30;100.00;102235.09;5032408;28;20489;-84
2021/10/24 02:18:16;;;;;;;26.95;10.20;;;;;;;5.44;100.00;102227.97;5034292;28;20539;-87
2021/10/24 02:20:44;;;;;;;26.88;9.52;;;;;;;5.20;100.00;102231.72;5012093;28;20140;-82
2021/10/24 02:23:11;;;;;;;25.70;9.00;;;;;;;5.07;100.00;102238.81;5052198;28;20448;-87
2021/10/24 02:25:38;;;;;;;20.40;9.00;;;;;;;5.33;100.00;102235.94;5011804;28;20045;-88
2021/10/24 02:28:05;;;;;;;20.90;8.82;;;;;;;5.46;100.00;102236.66;5001183;28;20052;-88
2021/10/24 02:30:34;;;;;;;19.02;8.32;;;;;;;5.59;100.00;102232.16;5031846;28;20441;-80
2021/10/24 02:33:01;;;;;;;19.77;8.88;;;;;;;5.31;100.00;102236.81;5017364;28;20053;-87
2021/10/24 02:35:29;;;;;;;26.05;9.98;;;;;;;5.19;100.00;102224.78;5008936;28;20040;-84
2021/10/24 02:37:56;;;;;;;36.30;10.40;;;;;;;5.22;100.00;102226.47;5026449;28;20499;-82
2021/10/24 02:40:23;;;;;;;25.08;9.98;;;;;;;5.40;100.00;102220.19;5026796;28;20044;-81
2021/10/24 02:42:51;;;;;;;19.42;8.20;;;;;;;5.57;100.00;102226.94;5036230;28;20045;-81
2021/10/24 02:45:18;;;;;;;19.15;8.48;;;;;;;5.37;100.00;102225.47;4999079;28;20056;-82
2021/10/24 02:47:45;;;;;;;23.35;9.43;;;;;;;5.56;100.00;102217.38;5036042;28;20049;-80
2021/10/24 02:50:13;;;;;;;24.95;9.80;;;;;;;5.58;100.00;102223.47;5014131;28;20404;-82
2021/10/24 02:52:40;;;;;;;23.00;9.88;;;;;;;5.36;100.00;102234.16;5034108;28;20061;-81
2021/10/24 02:55:08;;;;;;;19.73;9.65;;;;;;;5.21;100.00;102227.38;5029696;28;20435;-81
2021/10/24 02:57:35;;;;;;;17.42;8.65;;;;;;;5.29;100.00;102222.94;5024044;28;20067;-83
2021/10/24 03:00:05;;;;;;;26.13;9.82;;;;;;;5.46;100.00;102223.59;5033680;28;20085;-89
2021/10/24 03:02:32;;;;;;;21.17;9.73;;;;;;;5.76;100.00;102224.97;5000590;28;20059;-84
2021/10/24 03:05:00;;;;;;;19.52;10.30;;;;;;;5.59;100.00;102226.94;5027446;28;20397;-82
2021/10/24 03:07:27;;;;;;;21.70;9.85;;;;;;;5.49;100.00;102228.81;5031315;28;20170;-79
2021/10/24 03:09:54;;;;;;;24.85;9.60;;;;;;;5.50;100.00;102235.75;5009453;28;20059;-84
2021/10/24 03:12:21;;;;;;;21.17;8.82;;;;;;;5.68;100.00;102237.28;5035321;28;20512;-83
2021/10/24 03:14:48;;;;;;;20.38;8.63;;;;;;;5.98;100.00;102230.78;5048671;28;20041;-82
2021/10/24 03:17:16;;;;;;;22.30;8.65;;;;;;;5.95;100.00;102228.22;5018065;28;20053;-82
2021/10/24 03:19:43;;;;;;;17.73;8.10;;;;;;;6.00;100.00;102236.88;5042908;28;20048;-88
2021/10/24 03:22:10;;;;;;;25.13;7.95;;;;;;;5.96;100.00;102243.03;5016311;28;20048;-85
2021/10/24 03:24:38;;;;;;;20.02;8.25;;;;;;;5.97;100.00;102238.66;5031091;28;20045;-85
2021/10/24 03:27:05;;;;;;;19.23;7.70;;;;;;;6.22;100.00;102244.41;5033239;28;20049;-80
2021/10/24 03:29:32;;;;;;;19.23;8.38;;;;;;;6.29;100.00;102244.28;5009896;28;20156;-85
2021/10/24 03:32:00;;;;;;;12.80;6.88;;;;;;;6.24;100.00;102246.09;5046664;28;20041;-83
2021/10/24 03:34:27;;;;;;;19.55;8.48;;;;;;;6.23;100.00;102241.75;5024080;28;20120;-84
2021/10/24 03:36:55;;;;;;;19.80;6.78;;;;;;;6.28;100.00;102254.75;5033368;28;20059;-85
2021/10/24 03:39:22;;;;;;;16.15;7.18;;;;;;;6.26;100.00;102256.53;5022506;28;20402;-80
2021/10/24 03:41:49;;;;;;;18.10;7.45;;;;;;;6.32;100.00;102251.22;5030785;28;20400;-83
2021/10/24 03:44:16;;;;;;;15.75;7.70;;;;;;;6.33;100.00;102255.56;5028948;28;20060;-89
2021/10/24 03:46:43;;;;;;;18.70;7.57;;;;;;;6.27;100.00;102256.53;5012666;28;20051;-84
2021/10/24 03:49:11;;;;;;;15.20;7.20;;;;;;;6.24;100.00;102259.16;5012540;28;20139;-88
2021/10/24 03:51:38;;;;;;;13.50;7.22;;;;;;;6.34;100.00;102262.50;5000693;28;20048;-82
2021/10/24 03:54:05;;;;;;;20.58;8.13;;;;;;;6.43;100.00;102259.75;5048755;28;20041;-88
2021/10/24 03:56:32;;;;;;;10.98;6.80;;;;;;;6.42;100.00;102268.50;5026638;28;20037;-80
2021/10/24 03:58:59;;;;;;;17.13;7.28;;;;;;;6.48;100.00;102257.06;5030332;28;20381;-84
2021/10/24 04:01:27;;;;;;;14.88;5.95;;;;;;;6.49;100.00;102261.44;5016095;28;20045;-85
2021/10/24 04:03:54;;;;;;;17.25;7.03;;;;;;;6.40;100.00;102261.56;5048325;28;20045;-82
2021/10/24 04:06:21;;;;;;;22.58;6.55;;;;;;;6.45;100.00;102268.44;5031059;28;20240;-82
2021/10/24 04:08:49;;;;;;;15.73;7.03;;;;;;;6.41;100.00;102266.78;5030759;28;20052;-81
2021/10/24 04:11:16;;;;;;;17.05;6.93;;;;;;;6.48;100.00;102265.78;5013669;28;20392;-80
2021/10/24 04:13:43;;;;;;;15.45;6.93;;;;;;;6.44;100.00;102264.13;5032351;28;20044;-78
2021/10/24 04:16:10;;;;;;;14.18;5.25;;;;;;;6.53;100.00;102257.88;5047465;28;20057;-81
2021/10/24 04:18:37;;;;;;;18.27;6.60;;;;;;;6.43;100.00;102270.22;5030041;28;20049;-83
2021/10/24 04:21:04;;;;;;;17.73;6.43;;;;;;;6.30;100.00;102272.19;5045089;28;20084;-85
2021/10/24 04:23:32;;;;;;;18.38;7.00;;;;;;;6.19;100.00;102267.97;5012672;28;20045;-84
2021/10/24 04:25:59;;;;;;;17.50;6.50;;;;;;;6.18;100.00;102279.34;5030440;28;20044;-83
2021/10/24 04:28:26;;;;;;;19.27;6.57;;;;;;;6.32;100.00;102273.00;5017819;28;20051;-81
2021/10/24 04:30:53;;;;;;;17.48;6.35;;;;;;;6.46;100.00;102272.78;5028036;28;20057;-83
2021/10/24 04:33:21;;;;;;;18.45;7.15;;;;;;;6.57;100.00;102270.00;5047981;28;20092;-82
2021/10/24 04:35:48;;;;;;;22.00;7.82;;;;;;;6.46;100.00;102266.69;5031167;28;20044;-84
2021/10/24 04:38:15;;;;;;;12.75;6.22;;;;;;;6.26;100.00;102261.75;4997687;28;20049;-87
2021/10/24 04:40:42;;;;;;;19.92;7.60;;;;;;;6.31;100.00;102273.03;5013666;28;20045;-89
2021/10/24 04:43:17;;;;;;;17.75;6.65;;;;;;;6.46;100.00;102264.94;5014663;28;20055;-86
2021/10/24 04:45:44;;;;;;;14.90;6.82;;;;;;;6.28;100.00;102254.75;5009654;28;20057;-84
2021/10/24 04:48:11;;;;;;;20.50;7.07;;;;;;;6.18;100.00;102266.25;5030534;28;20132;-87
2021/10/24 04:50:41;;;;;;;13.55;6.97;;;;;;;6.18;100.00;102261.03;5021017;28;20072;-84
2021/10/24 04:53:09;;;;;;;15.52;6.88;;;;;;;6.03;100.00;102268.19;5011044;28;20057;-89
2021/10/24 04:55:36;;;;;;;13.57;6.05;;;;;;;6.14;100.00;102275.88;4995534;28;20048;-84
2021/10/24 04:58:03;;;;;;;12.80;5.63;;;;;;;6.13;100.00;102265.47;5028704;28;20045;-85
2021/10/24 05:00:30;;;;;;;11.35;6.00;;;;;;;6.15;100.00;102274.13;5030218;28;20063;-83
2021/10/24 05:03:01;;;;;;;16.70;6.50;;;;;;;6.06;100.00;102262.91;5013067;28;20060;-83
2021/10/24 05:05:28;;;;;;;13.70;6.40;;;;;;;6.06;100.00;102273.38;5008938;28;20522;-83
2021/10/24 05:07:55;;;;;;;13.70;6.45;;;;;;;6.00;100.00;102268.22;5032304;28;20131;-79
2021/10/24 05:10:23;;;;;;;17.45;6.43;;;;;;;5.89;100.00;102272.69;5035452;28;20396;-83
2021/10/24 05:12:50;;;;;;;15.35;6.50;;;;;;;5.70;100.00;102268.59;5012666;28;20041;-81
2021/10/24 05:15:19;;;;;;;20.35;6.18;;;;;;;5.69;100.00;102275.56;5027201;28;20508;-81
2021/10/24 05:17:46;;;;;;;17.65;6.78;;;;;;;5.78;100.00;102265.00;5045832;28;20048;-82
2021/10/24 05:20:13;;;;;;;13.65;6.07;;;;;;;5.62;100.00;102265.19;5029514;28;20076;-88
2021/10/24 05:22:40;;;;;;;16.65;6.65;;;;;;;5.36;100.00;102271.63;5029483;28;20508;-84
2021/10/24 05:25:08;;;;;;;19.08;6.65;;;;;;;5.30;100.00;102276.88;5029595;28;20447;-81
2021/10/24 05:27:35;;;;;;;21.00;6.20;;;;;;;5.15;100.00;102283.13;5033525;28;20045;-82
2021/10/24 05:30:03;;;;;;;19.77;6.65;;;;;;;5.13;100.00;102282.28;5012629;28;20049;-84
2021/10/24 05:32:31;;;;;;;17.17;6.93;;;;;;;5.08;100.00;102282.31;5031300;28;20057;-82
2021/10/24 05:34:58;;;;;;;19.08;7.22;;;;;;;5.01;100.00;102279.78;5020753;28;20049;-88
2021/10/24 05:37:26;;;;;;;14.30;6.97;;;;;;;4.74;100.00;102281.78;5015970;28;20061;-83
2021/10/24 05:39:53;;;;;;;18.70;7.55;;;;;;;4.55;100.00;102288.00;5013001;28;20208;-86
2021/10/24 05:42:20;;;;;;;22.15;8.43;;;;;;;4.45;100.00;102276.75;5016228;28;20060;-82
2021/10/24 05:44:49;;;;;;;18.73;9.02;;;;;;;4.21;100.00;102285.63;5010675;28;20064;-86
2021/10/24 05:47:16;;;;;;;20.58;8.05;;;;;;;4.26;100.00;102280.38;5043367;28;20071;-81
2021/10/24 05:49:43;;;;;;;17.45;7.43;;;;;;;4.29;100.00;102275.16;5017669;28;20432;-79
2021/10/24 05:52:10;;;;;;;21.67;8.18;;;;;;;4.30;100.00;102282.09;5020315;28;20530;-86
2021/10/24 05:54:37;;;;;;;19.38;8.38;;;;;;;4.31;100.00;102282.06;4999872;28;20372;-85
2021/10/24 05:57:05;;;;;;;19.27;8.02;;;;;;;4.27;100.00;102287.31;5038678;28;20057;-88
2021/10/24 05:59:32;;;;;;;16.30;7.93;;;;;;;4.36;100.00;102286.38;5038841;28;20515;-82
2021/10/24 06:01:59;;;;;;;18.02;8.45;;;;;;;4.44;100.00;102277.63;5021189;28;20431;-78
2021/10/24 06:04:27;;;;;;;31.45;9.57;;;;;;;4.50;100.00;102275.00;4993661;28;20049;-83
2021/10/24 06:06:54;;;;;;;17.70;8.32;;;;;;;4.61;100.00;102276.66;5020225;28;20067;-83
2021/10/24 06:09:29;;;;;;;18.88;8.13;;;;;;;4.75;100.00;102283.50;5032908;28;20413;-82
2021/10/24 06:12:01;;;;;;;18.55;8.25;;;;;;;4.76;100.00;102281.75;5000828;28;20476;-81
2021/10/24 06:14:28;;;;;;;25.75;9.75;;;;;;;4.79;100.00;102292.16;5009584;28;20426;-81
2021/10/24 06:16:55;;;;;;;16.45;8.48;;;;;;;4.87;100.00;102276.47;5003755;28;20391;-85
2021/10/24 06:19:22;;;;;;;17.50;8.10;;;;;;;4.97;100.00;102285.91;5033942;28;20053;-83
2021/10/24 06:21:50;;;;;;;22.10;7.60;;;;;;;5.04;100.00;102290.19;5018662;28;20356;-86
2021/10/24 06:24:17;;;;;;;27.48;8.10;;;;;;;5.13;100.00;102289.25;5016405;28;20061;-82
2021/10/24 06:26:45;;;;;;;19.92;8.18;;;;;;;5.14;100.00;102291.00;5004168;28;20275;-88
2021/10/24 06:29:13;;;;;;;19.05;7.63;;;;;;;5.24;100.00;102292.63;5032425;28;20444;-89
2021/10/24 06:31:40;;;;;;;16.27;7.50;;;;;;;5.29;100.00;102293.44;5003295;28;20172;-84
2021/10/24 06:34:07;;;;;;;19.25;7.07;;;;;;;5.30;100.00;102295.16;5021592;28;20045;-85
2021/10/24 06:36:35;;;;;;;17.17;7.10;;;;;;;5.37;100.00;102294.22;5020241;28;20057;-82
2021/10/24 06:39:02;;;;;;;10.88;7.38;;;;;;;5.38;100.00;102298.56;5047396;28;20073;-83
2021/10/24 06:41:30;;;;;;;17.75;6.85;;;;;;;5.54;100.00;102294.06;5054436;28;20052;-81
2021/10/24 06:43:57;;;;;;;21.33;8.45;;;;;;;5.62;100.00;102296.56;5030110;28;20127;-84
2021/10/24 06:46:24;;;;;;;14.73;7.35;;;;;;;5.76;100.00;102294.63;5018376;28;20041;-84
2021/10/24 06:48:51;;;;;;;19.40;8.00;;;;;;;5.90;100.00;102302.31;5035430;28;20325;-85
2021/10/24 06:51:19;;;;;;;14.63;7.45;;;;;;;6.02;100.00;102297.81;5035240;28;20056;-83
2021/10/24 06:53:46;;;;;;;17.05;7.22;;;;;;;5.99;100.00;102297.88;5016920;28;20033;-83
2021/10/24 06:56:13;;;;;;;17.85;7.28;;;;;;;6.05;100.00;102302.16;5018218;28;20053;-82
2021/10/24 06:58:40;;;;;;;19.85;7.57;;;;;;;6.27;100.00;102308.81;5038360;28;20048;-83
2021/10/24 07:01:08;;;;;;;13.63;6.80;;;;;;;6.24;100.00;102310.63;5036302;28;20132;-82
2021/10/24 07:03:35;;;;;;;17.67;6.93;;;;;;;6.48;100.00;102302.41;5050933;28;20065;-82
2021/10/24 07:06:03;;;;;;;12.65;7.05;;;;;;;6.59;100.00;102305.72;5034176;28;20048;-85
2021/10/24 07:08:30;;;;;;;19.20;7.30;;;;;;;6.82;98.24;102296.66;5017444;28;20103;-83
2021/10/24 07:10:57;;;;;;;14.00;7.03;;;;;;;7.24;96.76;102302.03;5017245;28;20040;-86
2021/10/24 07:13:24;;;;;;;14.82;6.40;;;;;;;7.91;91.30;102298.06;5003496;28;20059;-85
2021/10/24 07:15:55;;;;;;;14.73;5.88;;;;;;;7.34;92.93;102300.97;5018236;28;20052;-84
2021/10/24 07:18:22;;;;;;;10.75;6.40;;;;;;;7.42;93.35;102306.91;5001190;28;20075;-83
2021/10/24 07:20:50;;;;;;;16.02;6.40;;;;;;;7.44;93.58;102299.91;5034096;28;20038;-85
2021/10/24 07:23:18;;;;;;;14.27;7.43;;;;;;;7.42;93.64;102304.28;5001772;28;20069;-81
2021/10/24 07:25:45;;;;;;;18.02;6.40;;;;;;;7.67;91.16;102301.22;5017063;28;20045;-86
2021/10/24 07:28:13;;;;;;;23.27;7.40;;;;;;;8.33;87.90;102293.66;5034316;28;20049;-85
2021/10/24 07:30:40;;;;;;;11.75;6.45;;;;;;;8.83;84.74;102298.63;5002320;28;20491;-90
2021/10/24 07:33:08;;;;;;;12.30;6.28;;;;;;;9.61;80.22;102291.31;5002249;28;20055;-82
2021/10/24 07:35:36;;;;;;;11.75;6.32;;;;;;;9.35;80.29;102292.88;5012181;28;20140;-83
2021/10/24 07:38:04;;;;;;;9.60;6.10;;;;;;;9.57;80.04;102297.53;5051060;28;20072;-89
2021/10/24 07:40:35;;;;;;;16.48;6.40;;;;;;;10.09;78.04;102298.69;5032210;28;20538;-83
2021/10/24 07:43:03;;;;;;;18.15;6.60;;;;;;;10.94;73.19;102300.34;5010008;28;20045;-90
2021/10/24 07:45:30;;;;;;;12.82;5.68;;;;;;;11.60;70.17;102304.19;5009706;28;20072;-84
2021/10/24 07:47:57;;;;;;;12.10;5.65;;;;;;;12.59;66.55;102294.22;5014858;28;20064;-83
2021/10/24 07:50:28;;;;;;;12.88;5.65;;;;;;;13.08;62.55;102292.19;5014499;28;20041;-86
2021/10/24 07:52:55;;;;;;;9.02;5.55;;;;;;;13.59;62.12;102296.13;5029852;28;20368;-82
2021/10/24 07:55:22;;;;;;;9.32;5.38;;;;;;;13.73;60.31;102292.88;5016260;28;20049;-84
2021/10/24 07:57:50;;;;;;;14.82;6.43;;;;;;;14.24;59.11;102294.03;5036028;28;20144;-83
2021/10/24 08:00:17;;;;;;;12.57;6.22;;;;;;;14.27;57.74;102299.16;5014365;28;20135;-86
2021/10/24 08:02:44;;;;;;;14.90;6.40;;;;;;;14.33;56.54;102295.38;5020683;28;20052;-84
2021/10/24 08:05:12;;;;;;;11.48;5.47;;;;;;;14.79;54.82;102287.84;5036365;28;20520;-84
2021/10/24 08:07:40;;;;;;;9.85;5.13;;;;;;;15.58;53.04;102291.69;5038798;28;20049;-83
2021/10/24 08:10:08;;;;;;;12.05;5.68;;;;;;;15.30;53.02;102288.75;5023323;28;20410;-85
2021/10/24 08:12:37;;;;;;;10.55;5.43;;;;;;;16.26;50.64;102294.19;5017326;28;20148;-83
2021/10/24 08:15:06;;;;;;;10.18;5.70;;;;;;;15.93;51.15;102291.59;5014067;28;20060;-83
2021/10/24 08:17:33;;;;;;;10.57;5.72;;;;;;;16.41;49.35;102282.69;5040935;28;20055;-83
2021/10/24 08:20:01;;;;;;;11.77;5.75;;;;;;;16.65;48.87;102296.34;5046241;28;20059;-88
2021/10/24 08:22:28;;;;;;;14.57;5.95;;;;;;;16.50;48.24;102286.63;5044860;28;20047;-88
2021/10/24 08:24:55;;;;;;;14.60;6.22;;;;;;;16.58;48.66;102289.69;5060935;28;20036;-87
2021/10/24 08:27:22;;;;;;;12.70;6.45;;;;;;;17.03;47.38;102284.47;5074862;28;20045;-86
2021/10/24 08:29:50;;;;;;;12.55;5.53;;;;;;;17.33;46.68;102284.41;5030878;28;20055;-85
2021/10/24 08:32:17;;;;;;;10.07;4.85;;;;;;;17.52;45.88;102278.81;5022628;28;20102;-84
2021/10/24 08:34:44;;;;;;;11.85;5.15;;;;;;;17.61;45.69;102283.59;5034484;28;20045;-85
2021/10/24 08:37:11;;;;;;;11.68;6.45;;;;;;;18.09;44.62;102276.13;5051930;28;20041;-84
2021/10/24 08:39:39;;;;;;;10.23;5.50;;;;;;;17.85;45.00;102276.72;5037458;28;20041;-84
2021/10/24 08:42:07;;;;;;;12.18;5.35;;;;;;;17.90;44.20;102279.09;5056284;28;20049;-83
2021/10/24 08:44:35;;;;;;;13.27;5.45;;;;;;;18.10;43.61;102284.03;5017372;28;20053;-85
2021/10/24 08:47:03;;;;;;;10.35;5.55;;;;;;;17.64;44.78;102268.25;5049517;28;20074;-83
2021/10/24 08:49:31;;;;;;;16.33;6.18;;;;;;;18.11;44.34;102271.56;5023273;28;20052;-84
2021/10/24 08:51:58;;;;;;;14.15;7.07;;;;;;;17.61;45.23;102267.59;5003930;28;20077;-84
2021/10/24 08:54:27;;;;;;;12.63;6.13;;;;;;;18.28;43.74;102273.09;5015514;28;20761;-84
2021/10/24 08:56:55;;;;;;;9.27;5.25;;;;;;;17.58;45.55;102273.09;4996489;28;20049;-88
2021/10/24 08:59:22;;;;;;;14.10;6.15;;;;;;;16.90;48.46;102266.56;5023081;28;20079;-83
2021/10/24 09:01:51;;;;;;;16.50;6.35;;;;;;;17.67;45.54;102267.22;5038061;28;20045;-84
2021/10/24 09:04:18;;;;;;;11.13;5.18;;;;;;;17.50;45.39;102267.41;5017152;28;20080;-83
2021/10/24 09:06:59;;;;;;;13.82;4.95;;;;;;;15.98;49.34;102278.06;5002847;28;20453;-84
2021/10/24 09:09:30;;;;;;;11.32;5.40;;;;;;;16.53;48.37;102267.00;5039829;28;20044;-84
2021/10/24 09:11:59;;;;;;;11.85;5.47;;;;;;;16.55;48.02;102260.63;5039293;28;20051;-80
2021/10/24 09:14:36;;;;;;;14.60;5.90;;;;;;;15.87;49.83;102265.38;5049402;28;20151;-83
2021/10/24 09:17:05;;;;;;;9.98;5.45;;;;;;;14.46;53.73;102264.72;5036939;28;20044;-84
2021/10/24 09:19:34;;;;;;;15.00;6.35;;;;;;;13.78;56.05;102255.59;5050500;28;20059;-83
2021/10/24 09:22:35;;;;;;;12.45;6.13;;;;;;;12.41;62.15;102260.63;5041251;28;20051;-82
2021/10/24 09:25:05;;;;;;;18.52;5.78;;;;;;;12.59;61.92;102254.59;5026971;28;20052;-82
2021/10/24 09:27:53;;;;;;;10.10;5.15;;;;;;;12.43;62.54;102253.53;5040624;28;20047;-83
2021/10/24 09:30:25;;;;;;;9.52;4.53;;;;;;;11.61;65.62;102255.78;5056947;28;20147;-82
2021/10/24 09:32:57;;;;;;;14.57;4.97;;;;;;;11.62;65.40;102254.03;5039135;28;20527;-84
2021/10/24 09:35:29;;;;;;;14.52;5.20;;;;;;;11.64;66.35;102257.44;5051390;28;20041;-89
2021/10/24 09:37:58;;;;;;;20.17;5.55;;;;;;;11.62;66.17;102251.38;5051176;28;20056;-85
2021/10/24 09:40:35;;;;;;;14.90;5.20;;;;;;;11.83;65.48;102247.09;5035999;28;20128;-83
2021/10/24 09:43:23;;;;;;;15.70;4.85;;;;;;;12.03;64.93;102249.84;5017069;28;20066;-84
2021/10/24 09:46:10;;;;;;;13.63;5.30;;;;;;;11.45;66.83;102248.50;5017099;28;20496;-81
2021/10/24 09:48:41;;;;;;;12.32;4.35;;;;;;;10.97;68.65;102244.91;5013165;28;20044;-83
2021/10/24 09:51:16;;;;;;;10.75;3.75;;;;;;;11.32;67.73;102251.59;5017406;28;20045;-84
2021/10/24 09:53:47;;;;;;;;;;;;;;;11.23;67.68;102245.78;5018955;28;20243;-83
2021/10/24 09:56:17;;;;;;;8.00;3.83;;;;;;;11.29;67.64;102248.19;5016105;28;19965;-83
2021/10/24 09:58:49;;;;;;;17.70;5.55;;;;;;;11.29;67.60;102248.19;5039726;28;20045;-83
2021/10/24 10:01:18;;;;;;;10.60;3.97;;;;;;;11.22;68.06;102249.34;5035296;28;20063;-83
2021/10/24 10:03:48;;;;;;;11.40;3.65;;;;;;;11.18;68.02;102253.00;5037375;28;20276;-82
2021/10/24 10:06:19;;;;;;;10.10;4.45;;;;;;;11.19;67.64;102245.03;5019205;28;20056;-82
2021/10/24 10:08:46;;;;;;;10.68;4.38;;;;;;;11.46;67.43;102243.16;5027881;28;20052;-81
2021/10/24 10:11:28;;;;;;;9.57;4.05;;;;;;;11.59;66.90;102238.31;5023666;28;20392;-82
2021/10/24 10:14:02;;;;;;;18.15;5.32;;;;;;;11.44;67.30;102233.56;5035495;28;20400;-83
2021/10/24 10:16:42;;;;;;;14.00;4.53;;;;;;;11.26;68.06;102236.00;5018758;28;20043;-81
2021/10/24 10:19:10;;;;;;;9.60;4.05;;;;;;;11.18;68.25;102230.13;5014531;28;20049;-86
2021/10/24 10:21:42;;;;;;;12.88;4.35;;;;;;;11.12;69.19;102231.22;5018615;28;20044;-84
2021/10/24 10:24:35;;;;;;;10.32;4.07;;;;;;;11.17;69.13;102225.78;5032554;28;20132;-85
2021/10/24 10:27:12;;;;;;;14.82;4.10;;;;;;;11.24;68.80;102226.41;5050753;28;20056;-83
2021/10/24 10:29:50;;;;;;;13.48;5.05;;;;;;;11.32;69.76;102219.94;5028205;28;20136;-80
2021/10/24 10:32:19;;;;;;;17.38;5.85;;;;;;;11.38;69.98;102218.84;5036042;28;20057;-83
2021/10/24 10:34:59;;;;;;;11.75;4.50;;;;;;;11.44;68.38;102216.00;5016903;28;20446;-83
2021/10/24 10:37:56;;;;;;;7.68;3.88;;;;;;;11.43;69.03;102216.91;5034600;28;20144;-83
2021/10/24 10:40:32;;;;;;;12.52;3.97;;;;;;;11.50;68.02;102212.28;5054128;28;20052;-83
2021/10/24 10:43:22;;;;;;;13.57;4.70;;;;;;;11.20;69.04;102209.84;5027350;28;20045;-87
2021/10/24 10:45:56;;;;;;;11.77;3.55;;;;;;;11.13;68.79;102205.72;5014810;28;20041;-83
2021/10/24 10:48:34;;;;;;;13.27;3.63;;;;;;;11.02;69.53;102213.13;5034801;28;20057;-82
2021/10/24 10:51:16;;;;;;;10.52;3.88;;;;;;;10.99;69.50;102206.22;5051925;28;20173;-81
2021/10/24 10:53:46;;;;;;;10.02;3.58;;;;;;;11.07;69.51;102204.13;5046120;28;20056;-82
2021/10/24 10:56:26;;;;;;;10.20;3.80;;;;;;;11.17;68.69;102202.06;5023975;28;20084;-82
2021/10/24 10:58:55;;;;;;;14.35;4.03;;;;;;;11.09;69.45;102193.56;5030685;28;20038;-82
2021/10/24 11:01:25;;;;;;;9.48;3.58;;;;;;;11.10;70.22;102196.13;5033283;28;20053;-81
2021/10/24 11:03:59;;;;;;;13.43;4.20;;;;;;;11.07;69.58;102190.09;5016721;28;20091;-83
2021/10/24 11:06:26;;;;;;;9.38;3.22;;;;;;;11.10;69.42;102182.09;5017466;28;20381;-81
2021/10/24 11:08:54;;;;;;;9.07;3.90;;;;;;;11.31;68.67;102183.94;5033703;28;20037;-81
2021/10/24 11:11:45;;;;;;;12.20;3.40;;;;;;;11.25;68.71;102178.03;5028793;28;20096;-81
2021/10/24 11:14:16;;;;;;;9.90;3.45;;;;;;;11.24;68.34;102165.78;5034488;28;20082;-85
2021/10/24 11:16:54;;;;;;;11.82;3.80;;;;;;;11.25;69.45;102165.72;5017324;28;20164;-85
2021/10/24 11:19:27;;;;;;;11.63;3.72;;;;;;;11.20;69.10;102162.38;5028696;28;20084;-81
2021/10/24 11:22:01;;;;;;;13.93;4.10;;;;;;;11.10;69.36;102161.88;5016433;28;20049;-82
2021/10/24 11:24:42;;;;;;;9.73;3.33;;;;;;;11.17;68.06;102162.53;5018007;28;20051;-83
2021/10/24 11:27:11;;;;;;;9.02;3.22;;;;;;;11.17;67.49;102151.97;5015446;28;20475;-83